Time;durP1;ratioP1;P1;durP2;ratioP2;P2;SDS_P1;SDS_P2;PMS_P1;PMS_P2;Temp;Humidity;BMP_temperature;BMP_pressure;BME280_temperature;BME280_humidity;BME280_pressure;Samples;Min_cycle;Max_cycle;Signal;HPM_P1;HPM_P2
2022/01/30 00:00:38;;;;;;;11.33;5.37;;;;;;;-2.22;77.33;98584.32;1735890;82;20925;-69
2022/01/30 00:03:06;;;;;;;11.93;6.15;;;;;;;-2.22;77.33;98578.13;1735894;82;20922;-69
2022/01/30 00:05:34;;;;;;;12.10;5.87;;;;;;;-2.23;77.37;98557.06;1736018;82;21490;-69
2022/01/30 00:08:01;;;;;;;14.13;6.00;;;;;;;-2.23;77.42;98563.81;1743256;81;21044;-68
2022/01/30 00:10:30;;;;;;;16.97;6.33;;;;;;;-2.23;77.48;98550.31;1744386;82;20945;-69
2022/01/30 00:13:00;;;;;;;19.87;5.97;;;;;;;-2.24;77.56;98547.34;1744153;82;21643;-69
2022/01/30 00:15:49;;;;;;;16.70;4.90;;;;;;;-2.24;77.60;98540.59;1744216;81;20909;-69
2022/01/30 00:18:09;;;;;;;9.58;5.10;;;;;;;-2.22;77.59;98538.98;1735469;82;21318;-69
2022/01/30 00:20:32;;;;;;;12.07;5.55;;;;;;;-2.23;77.51;98530.06;1742317;82;20842;-69
2022/01/30 00:23:11;;;;;;;14.68;5.08;;;;;;;-2.23;77.64;98516.57;1744376;82;20877;-69
2022/01/30 00:25:43;;;;;;;11.30;5.75;;;;;;;-2.22;77.70;98509.30;1742122;82;20994;-68
2022/01/30 00:28:05;;;;;;;10.25;5.47;;;;;;;-2.23;77.69;98504.95;1741454;82;20916;-68
2022/01/30 00:30:34;;;;;;;15.93;6.90;;;;;;;-2.23;77.66;98481.48;1743992;82;21152;-67
2022/01/30 00:32:59;;;;;;;16.85;5.95;;;;;;;-2.20;77.57;98479.60;1743802;82;20846;-67
2022/01/30 00:35:33;;;;;;;16.25;6.15;;;;;;;-2.17;77.17;98476.11;1744290;82;20972;-68
2022/01/30 00:38:16;;;;;;;15.30;6.35;;;;;;;-2.17;77.26;98462.61;1744185;82;20917;-69
2022/01/30 00:40:43;;;;;;;14.47;6.60;;;;;;;-2.17;77.50;98453.16;1744185;82;20992;-69
2022/01/30 00:43:09;;;;;;;11.70;5.17;;;;;;;-2.17;77.48;98442.37;1744222;82;23303;-68
2022/01/30 00:45:36;;;;;;;16.00;6.17;;;;;;;-2.16;77.43;98427.78;1744077;82;21525;-69
2022/01/30 00:48:06;;;;;;;17.92;6.70;;;;;;;-2.17;77.50;98426.17;1744053;81;20881;-69
2022/01/30 00:50:33;;;;;;;10.98;5.65;;;;;;;-2.20;77.62;98414.81;1744690;82;20968;-68
2022/01/30 00:53:01;;;;;;;14.10;6.50;;;;;;;-2.17;77.67;98408.63;1744192;82;20874;-68
2022/01/30 00:55:29;;;;;;;10.85;5.50;;;;;;;-2.17;77.58;98407.27;1744502;82;21406;-69
2022/01/30 00:57:56;;;;;;;15.78;6.78;;;;;;;-2.18;77.57;98392.16;1714777;82;20925;-69
2022/01/30 01:00:23;;;;;;;12.65;5.58;;;;;;;-2.17;77.58;98391.08;1744206;82;21001;-69
2022/01/30 01:02:50;;;;;;;11.25;5.28;;;;;;;-2.15;77.70;98371.38;1744279;82;20961;-69
2022/01/30 01:05:17;;;;;;;15.00;5.70;;;;;;;-2.15;77.76;98361.38;1744451;82;20976;-69
2022/01/30 01:07:47;;;;;;;16.87;6.20;;;;;;;-2.12;77.71;98356.83;1716539;82;21201;-69
2022/01/30 01:25:48;;;;;;;11.48;4.78;;;;;;;-2.12;77.18;98303.36;1746310;82;20932;-69
2022/01/30 01:28:15;;;;;;;11.43;4.42;;;;;;;-2.11;77.07;98294.99;1746604;82;20917;-69
2022/01/30 01:30:41;;;;;;;11.93;4.97;;;;;;;-2.08;76.87;98296.33;1746392;82;21081;-70
2022/01/30 01:33:08;;;;;;;15.85;4.83;;;;;;;-2.08;76.49;98293.63;1746449;82;21073;-69
2022/01/30 01:35:34;;;;;;;10.85;4.25;;;;;;;-2.07;76.63;98283.12;1746312;81;20964;-69
2022/01/30 01:38:04;;;;;;;9.65;4.92;;;;;;;-2.07;76.79;98272.33;1746190;81;21080;-69
2022/01/30 01:40:30;;;;;;;10.82;4.85;;;;;;;-2.06;76.70;98267.19;1746217;82;21509;-69
2022/01/30 01:43:00;;;;;;;8.43;4.35;;;;;;;-2.04;76.68;98258.29;1746619;82;20909;-69
2022/01/30 01:45:26;;;;;;;10.70;4.22;;;;;;;-2.01;76.26;98252.88;1745924;82;21045;-69
2022/01/30 01:47:54;;;;;;;12.80;4.80;;;;;;;-2.00;75.97;98253.98;1746263;82;20969;-69
2022/01/30 01:50:38;;;;;;;10.03;4.25;;;;;;;-1.98;75.81;98249.11;1746242;82;20973;-69
2022/01/30 01:52:49;;;;;;;11.43;4.83;;;;;;;-1.98;75.83;98245.05;1742865;82;21010;-69
2022/01/30 01:55:15;;;;;;;11.78;5.12;;;;;;;-1.99;75.83;98244.80;1717173;82;20930;-69
2022/01/30 01:57:43;;;;;;;11.93;5.08;;;;;;;-1.99;75.85;98245.33;1746466;82;21118;-69
2022/01/30 02:00:22;;;;;;;15.28;4.55;;;;;;;-2.01;79.28;98235.33;1741570;82;21525;-69
2022/01/30 02:02:48;;;;;;;13.30;4.75;;;;;;;-2.04;78.81;98227.23;1746739;81;21013;-68
2022/01/30 02:05:15;;;;;;;12.15;4.30;;;;;;;-2.05;78.12;98232.37;1746346;82;20956;-69
2022/01/30 02:10:36;;;;;;;13.65;5.15;;;;;;;-2.13;79.44;98216.71;1757775;81;21608;-69
2022/01/30 02:13:11;;;;;;;12.80;5.12;;;;;;;-2.17;80.00;98208.86;1756570;81;20975;-68
2022/01/30 02:26:07;;;;;;;9.13;4.65;;;;;;;-2.45;83.21;98151.06;1734455;81;20834;-69
2022/01/30 02:28:34;;;;;;;10.25;4.37;;;;;;;-2.51;83.80;98133.26;1757668;81;20964;-69
2022/01/30 02:31:07;;;;;;;9.83;3.87;;;;;;;-2.53;84.43;98130.02;1758022;81;20932;-69
2022/01/30 02:33:30;;;;;;;14.55;4.97;;;;;;;-2.54;85.05;98124.36;1719015;83;21404;-69
2022/01/30 02:35:56;;;;;;;17.67;4.80;;;;;;;-2.57;85.61;98115.72;1721913;83;21514;-69
2022/01/30 02:38:23;;;;;;;8.45;4.75;;;;;;;-2.58;86.76;98098.45;1692850;84;21539;-69
2022/01/30 02:40:53;;;;;;;9.18;3.72;;;;;;;-2.60;87.18;98097.38;1692970;84;20907;-69
2022/01/30 02:43:22;;;;;;;9.63;3.92;;;;;;;-2.61;87.46;98088.20;1692798;84;20959;-69
2022/01/30 02:46:03;;;;;;;10.72;4.20;;;;;;;-2.64;88.43;98085.48;1692513;84;20860;-69
2022/01/30 02:48:19;;;;;;;13.60;4.60;;;;;;;-2.69;90.49;98073.34;1689231;84;21841;-69
2022/01/30 02:50:54;;;;;;;10.53;4.05;;;;;;;-2.73;90.86;98063.63;1721289;83;21468;-69
2022/01/30 02:53:17;;;;;;;10.38;3.85;;;;;;;-2.79;100.00;98057.14;1720948;83;20927;-69
2022/01/30 02:55:46;;;;;;;9.10;3.87;;;;;;;-2.86;100.00;98036.65;1692874;84;21563;-69
2022/01/30 02:58:16;;;;;;;8.03;3.70;;;;;;;-2.87;100.00;98030.18;1692731;84;21524;-69
2022/01/30 03:00:43;;;;;;;11.22;3.90;;;;;;;-2.88;100.00;98019.92;1692640;84;21493;-69
2022/01/30 03:03:10;;;;;;;7.85;3.67;;;;;;;-2.89;100.00;98021.54;1692977;84;20856;-69
2022/01/30 03:05:37;;;;;;;9.35;3.77;;;;;;;-2.90;100.00;97995.67;1666992;84;20955;-69
2022/01/30 03:08:04;;;;;;;8.68;3.83;;;;;;;-2.91;100.00;98002.12;1681887;84;21517;-69
2022/01/30 03:10:30;;;;;;;7.60;3.33;;;;;;;-2.90;100.00;97995.67;1736025;82;20850;-69
2022/01/30 03:12:58;;;;;;;6.22;3.20;;;;;;;-2.90;100.00;97994.32;1736183;81;21093;-69
2022/01/30 03:15:26;;;;;;;8.38;3.77;;;;;;;-2.88;100.00;97985.44;1715104;82;20997;-68
2022/01/30 03:17:52;;;;;;;8.60;3.45;;;;;;;-2.87;100.00;97969.52;1736002;82;20969;-69
2022/01/30 03:20:18;;;;;;;7.40;3.37;;;;;;;-2.86;100.00;97965.73;1735887;82;20846;-68
2022/01/30 03:22:45;;;;;;;8.25;4.17;;;;;;;-2.87;100.00;97960.08;1735993;82;20997;-69
2022/01/30 03:25:11;;;;;;;8.13;3.12;;;;;;;-2.87;100.00;97952.80;1735905;82;21504;-69
2022/01/30 03:27:51;;;;;;;7.40;3.72;;;;;;;-2.86;100.00;97942.28;1728349;82;20929;-69
2022/01/30 03:30:19;;;;;;;11.08;3.67;;;;;;;-2.86;100.00;97933.38;1735374;82;20977;-69
2022/01/30 03:33:00;;;;;;;13.22;3.27;;;;;;;-2.84;100.00;97933.92;1714867;82;20934;-67
2022/01/30 03:35:28;;;;;;;7.92;3.10;;;;;;;-2.82;100.00;97928.54;1735974;82;20894;-67
2022/01/30 03:37:55;;;;;;;10.32;3.83;;;;;;;-2.81;100.00;97914.50;1735969;82;21138;-67
2022/01/30 03:40:22;;;;;;;9.23;3.17;;;;;;;-2.83;100.00;97912.08;1715072;82;21459;-67
2022/01/30 03:42:48;;;;;;;8.38;4.05;;;;;;;-2.83;100.00;97895.89;1735817;82;20950;-67
2022/01/30 03:45:15;;;;;;;12.20;3.62;;;;;;;-2.82;100.00;97893.48;1735972;82;20970;-67
2022/01/30 03:47:43;;;;;;;7.17;3.58;;;;;;;-2.78;100.00;97892.94;1736143;82;20937;-67
2022/01/30 03:50:12;;;;;;;10.20;4.05;;;;;;;-2.76;100.00;97875.95;1736282;82;21503;-67
2022/01/30 03:52:39;;;;;;;7.92;3.52;;;;;;;-2.76;100.00;97879.44;1736036;82;20886;-68
2022/01/30 03:55:07;;;;;;;7.30;3.37;;;;;;;-2.74;100.00;97874.59;1736169;82;20954;-68
2022/01/30 03:57:34;;;;;;;8.05;3.83;;;;;;;-2.74;100.00;97870.54;1735987;82;20930;-67
2022/01/30 04:00:00;;;;;;;7.75;3.52;;;;;;;-2.74;100.00;97865.67;1736300;82;20969;-67
2022/01/30 04:02:29;;;;;;;8.65;3.72;;;;;;;-2.74;100.00;97844.11;1736252;82;21829;-66
2022/01/30 04:04:56;;;;;;;5.97;3.55;;;;;;;-2.78;100.00;97840.36;1715127;82;21470;-67
2022/01/30 04:07:24;;;;;;;5.35;3.30;;;;;;;-2.78;100.00;97839.01;1737739;82;20977;-68
2022/01/30 04:09:53;;;;;;;7.72;3.92;;;;;;;-2.78;100.00;97841.14;1749440;82;20940;-68
2022/01/30 04:12:25;;;;;;;10.63;4.95;;;;;;;-2.80;100.00;97821.76;1749880;82;20929;-68
2022/01/30 04:15:05;;;;;;;5.85;3.02;;;;;;;-2.78;100.00;97827.66;1660077;86;21746;-67
2022/01/30 04:17:37;;;;;;;8.60;3.95;;;;;;;-2.77;100.00;97817.69;1702910;82;20929;-68
2022/01/30 04:20:09;;;;;;;6.00;3.20;;;;;;;-2.78;100.00;97806.65;1747655;82;21390;-67
2022/01/30 04:22:38;;;;;;;8.48;3.92;;;;;;;-2.78;100.00;97795.30;1692906;82;20949;-67
2022/01/30 04:25:15;;;;;;;5.45;3.08;;;;;;;-2.76;100.00;97782.36;1748582;82;21469;-67
2022/01/30 04:28:01;;;;;;;8.48;3.58;;;;;;;-2.75;100.00;97771.86;1747631;82;21107;-68
2022/01/30 04:30:32;;;;;;;6.55;3.90;;;;;;;-2.73;100.00;97779.67;1749969;82;21017;-68
2022/01/30 04:33:12;;;;;;;6.25;3.10;;;;;;;-2.71;100.00;97767.52;1747916;82;20921;-69
2022/01/30 04:36:03;;;;;;;5.67;3.75;;;;;;;-2.70;100.00;97763.75;1747202;82;20885;-68
2022/01/30 04:38:56;;;;;;;6.70;3.15;;;;;;;-2.69;100.00;97755.91;1720529;82;21017;-68
2022/01/30 05:02:02;;;;;;;6.58;3.27;;;;;;;-2.84;100.00;97713.64;1747479;82;20925;-70
2022/01/30 05:04:43;;;;;;;6.50;3.33;;;;;;;-2.85;100.00;97705.83;1717029;82;27046;-69
2022/01/30 05:09:51;;;;;;;11.12;4.15;;;;;;;-2.92;100.00;97703.43;1650068;85;21061;-69
2022/01/30 05:12:47;;;;;;;11.15;5.08;;;;;;;-2.93;100.00;97688.32;1626854;87;21049;-69
2022/01/30 05:15:11;;;;;;;;;;;;;;;-2.94;100.00;97683.49;1691734;82;21013;-70
2022/01/30 05:17:40;;;;;;;8.08;4.33;;;;;;;-2.94;100.00;97673.23;1734907;82;20119;-70
2022/01/30 05:20:11;;;;;;;11.70;4.97;;;;;;;-2.96;100.00;97665.43;1715764;82;20909;-70
2022/01/30 05:22:48;;;;;;;9.05;4.65;;;;;;;-2.97;100.00;97660.31;1707353;82;21152;-70
2022/01/30 05:25:16;;;;;;;12.65;4.47;;;;;;;-2.98;100.00;97664.89;1734639;82;21467;-70
2022/01/30 05:27:45;;;;;;;7.37;3.83;;;;;;;-2.99;100.00;97646.30;1735037;82;20982;-70
2022/01/30 05:30:17;;;;;;;8.70;4.03;;;;;;;-2.99;100.00;97637.69;1735864;82;20961;-69
2022/01/30 05:32:47;;;;;;;11.22;4.42;;;;;;;-2.99;100.00;97635.52;1734097;82;21435;-70
2022/01/30 05:35:17;;;;;;;8.85;4.70;;;;;;;-2.99;100.00;97640.91;1733234;82;21768;-70
2022/01/30 05:37:48;;;;;;;9.48;4.53;;;;;;;-3.00;100.00;97635.27;1734139;82;20930;-70
2022/01/30 05:40:29;;;;;;;8.48;4.65;;;;;;;-3.00;100.00;97627.97;1688125;82;20952;-69
2022/01/30 05:43:14;;;;;;;6.28;3.80;;;;;;;-2.97;100.00;97628.76;1735980;82;20924;-69
2022/01/30 05:46:11;;;;;;;;;;;;;;;-2.97;100.00;97622.58;1737794;82;20906;-69
2022/01/30 05:48:46;;;;;;;11.48;4.65;;;;;;;-2.96;100.00;97618.26;1734466;82;21019;-69
2022/01/30 05:51:15;;;;;;;9.00;4.47;;;;;;;-3.00;100.00;97610.45;1735960;82;21010;-69
2022/01/30 05:53:46;;;;;;;8.40;4.17;;;;;;;-3.01;100.00;97603.45;1713906;82;21025;-69
2022/01/30 05:56:14;;;;;;;9.28;4.40;;;;;;;-3.01;100.00;97606.69;1735833;82;20961;-68
2022/01/30 05:58:42;;;;;;;9.05;4.62;;;;;;;-3.02;100.00;97601.83;1736057;82;21549;-68
2022/01/30 06:01:15;;;;;;;8.40;4.20;;;;;;;-3.01;100.00;97590.52;1710299;82;21135;-69
2022/01/30 06:03:41;;;;;;;11.57;4.62;;;;;;;-3.01;100.00;97588.63;1736273;82;21028;-69
2022/01/30 06:06:08;;;;;;;7.67;4.65;;;;;;;-2.98;100.00;97592.11;1714910;82;20918;-69
2022/01/30 06:11:05;;;;;;;8.25;4.60;;;;;;;-2.97;100.00;97583.50;1715101;82;21454;-69
2022/01/30 06:13:34;;;;;;;8.10;4.70;;;;;;;-2.94;100.00;97601.80;1735963;82;21493;-69
2022/01/30 06:16:01;;;;;;;10.13;5.20;;;;;;;-2.94;100.00;97609.36;1735947;82;20934;-69
2022/01/30 06:18:30;;;;;;;8.78;4.50;;;;;;;-2.93;100.00;97580.48;1734852;82;20946;-69
2022/01/30 06:20:58;;;;;;;12.60;5.35;;;;;;;-2.91;100.00;97576.16;1732502;82;21419;-69
2022/01/30 06:23:43;;;;;;;15.80;4.92;;;;;;;-2.89;100.00;97581.55;1736075;82;20969;-69
2022/01/30 06:26:30;;;;;;;7.20;4.53;;;;;;;-2.87;100.00;97579.92;1736188;82;22167;-70
2022/01/30 06:29:15;;;;;;;8.98;4.62;;;;;;;-2.86;100.00;97571.56;1736203;82;20957;-69
2022/01/30 06:32:01;;;;;;;11.12;5.05;;;;;;;-2.83;100.00;97568.83;1735978;82;20984;-69
2022/01/30 06:34:47;;;;;;;10.20;4.67;;;;;;;-2.79;100.00;97564.51;1735977;82;20946;-69
2022/01/30 06:37:33;;;;;;;10.35;4.87;;;;;;;-2.76;100.00;97566.64;1736093;82;21033;-70
2022/01/30 06:40:06;;;;;;;7.80;4.75;;;;;;;-2.75;100.00;97552.63;1734310;82;21116;-69
2022/01/30 06:42:37;;;;;;;7.60;4.95;;;;;;;-2.74;100.00;97534.00;1664324;86;21023;-70
2022/01/30 06:45:23;;;;;;;7.47;3.83;;;;;;;-2.70;100.00;97546.66;1727036;82;21545;-69
2022/01/30 06:48:08;;;;;;;7.00;4.08;;;;;;;-2.64;100.00;97541.20;1735903;82;20917;-68
2022/01/30 06:50:45;;;;;;;13.00;4.83;;;;;;;-2.58;100.00;97526.61;1733170;82;20968;-69
2022/01/30 06:53:13;;;;;;;8.70;5.30;;;;;;;-2.53;100.00;97529.80;1730898;82;21768;-70
2022/01/30 06:55:43;;;;;;;8.65;4.67;;;;;;;-2.50;100.00;97526.53;1735858;82;20953;-71
2022/01/30 06:58:28;;;;;;;10.28;4.70;;;;;;;-2.48;100.00;97514.92;1735992;82;20954;-70
2022/01/30 07:01:13;;;;;;;8.55;5.03;;;;;;;-2.46;100.00;97510.84;1736159;82;21470;-70
2022/01/30 07:03:59;;;;;;;9.30;5.22;;;;;;;-2.43;100.00;97505.97;1681791;84;21485;-69
2022/01/30 07:06:46;;;;;;;8.80;5.28;;;;;;;-2.39;100.00;97507.81;1681978;85;21131;-69
2022/01/30 07:09:14;;;;;;;9.88;4.62;;;;;;;-2.34;100.00;97509.12;1681871;84;21128;-69
2022/01/30 07:11:41;;;;;;;9.90;5.33;;;;;;;-2.30;100.00;97497.78;1691517;82;21076;-69
2022/01/30 07:14:08;;;;;;;12.33;5.03;;;;;;;-2.26;100.00;97488.82;1736076;82;20850;-69
2022/01/30 07:16:34;;;;;;;9.45;5.42;;;;;;;-2.20;100.00;97489.02;1735968;82;20906;-69
2022/01/30 07:19:03;;;;;;;12.73;4.62;;;;;;;-2.15;100.00;97484.67;1735961;82;21911;-70
2022/01/30 07:21:29;;;;;;;8.85;5.25;;;;;;;-2.11;100.00;97485.70;1736275;82;20969;-70
2022/01/30 07:23:57;;;;;;;8.33;4.83;;;;;;;-2.06;100.00;97480.24;1736129;82;20886;-69
2022/01/30 07:26:23;;;;;;;8.70;4.62;;;;;;;-2.02;100.00;97479.94;1736031;82;21131;-69
2022/01/30 07:28:51;;;;;;;6.90;4.10;;;;;;;-1.94;100.00;97473.09;1736314;82;20885;-68
2022/01/30 07:31:18;;;;;;;10.88;4.83;;;;;;;-1.88;100.00;97450.90;1736050;82;21126;-69
2022/01/30 07:33:49;;;;;;;10.80;4.80;;;;;;;-1.81;100.00;97463.52;1735955;82;20977;-70
2022/01/30 07:36:15;;;;;;;7.12;4.12;;;;;;;-1.75;100.00;97462.34;1736532;82;21531;-70
2022/01/30 07:38:42;;;;;;;9.43;5.05;;;;;;;-1.64;100.00;97468.41;1736036;82;21573;-70
2022/01/30 07:41:08;;;;;;;5.87;3.83;;;;;;;-1.56;100.00;97462.92;1736077;82;20961;-70
2022/01/30 07:43:37;;;;;;;10.28;5.60;;;;;;;-1.52;100.00;97439.62;1736019;82;21621;-70
2022/01/30 07:46:04;;;;;;;6.87;4.17;;;;;;;-1.47;100.00;97451.71;1736220;82;20918;-69
2022/01/30 07:48:33;;;;;;;7.92;4.92;;;;;;;-1.40;100.00;97455.97;1735971;82;20934;-69
2022/01/30 07:51:00;;;;;;;8.25;4.22;;;;;;;-1.36;100.00;97451.03;1736389;82;20950;-70
2022/01/30 07:53:28;;;;;;;7.53;5.00;;;;;;;-1.30;100.00;97438.80;1735996;82;21422;-71
2022/01/30 07:55:57;;;;;;;9.70;5.25;;;;;;;-1.28;100.00;97445.50;1736099;82;21144;-71
2022/01/30 07:58:25;;;;;;;10.53;5.47;;;;;;;-1.24;100.00;97446.54;1735970;82;21478;-71
2022/01/30 08:00:56;;;;;;;8.45;4.83;;;;;;;-1.19;100.00;97453.77;1735979;82;20977;-70
2022/01/30 08:03:23;;;;;;;10.30;4.87;;;;;;;-1.14;100.00;97442.06;1715520;82;20977;-71
2022/01/30 08:05:50;;;;;;;8.78;5.10;;;;;;;-1.10;100.00;97429.58;1736136;82;20938;-70
2022/01/30 08:08:16;;;;;;;10.30;5.17;;;;;;;-1.05;100.00;97440.86;1736282;82;21119;-70
2022/01/30 08:10:44;;;;;;;7.47;4.00;;;;;;;-1.00;100.00;97442.94;1747870;82;21183;-71
2022/01/30 08:13:10;;;;;;;6.42;4.55;;;;;;;-0.96;100.00;97439.64;1750438;82;21422;-68
2022/01/30 08:15:37;;;;;;;8.18;4.25;;;;;;;-0.86;100.00;97443.54;1750059;82;20934;-69
2022/01/30 08:18:03;;;;;;;8.08;4.80;;;;;;;-0.80;100.00;97440.21;1723160;82;20962;-70
2022/01/30 08:20:30;;;;;;;8.18;4.35;;;;;;;-0.72;100.00;97423.30;1750079;82;21953;-70
2022/01/30 08:23:00;;;;;;;8.98;4.55;;;;;;;-0.64;100.00;97431.27;1749914;82;20932;-70
2022/01/30 08:25:27;;;;;;;8.05;4.15;;;;;;;-0.61;100.00;97418.50;1750119;82;20950;-70
2022/01/30 08:27:54;;;;;;;7.67;4.67;;;;;;;-0.56;100.00;97423.83;1749938;82;20948;-70
2022/01/30 08:30:21;;;;;;;7.75;4.33;;;;;;;-0.50;100.00;97423.20;1750094;82;21064;-70
2022/01/30 08:32:49;;;;;;;7.10;3.90;;;;;;;-0.43;100.00;97418.74;1749893;82;21979;-70
2022/01/30 08:35:16;;;;;;;6.55;3.47;;;;;;;-0.37;100.00;97420.24;1750402;82;21450;-70
2022/01/30 08:37:42;;;;;;;6.30;3.95;;;;;;;-0.30;100.00;97420.66;1749968;82;21021;-70
2022/01/30 08:40:15;;;;;;;7.45;4.87;;;;;;;-0.27;100.00;97411.94;1750288;82;20917;-70
2022/01/30 08:42:43;;;;;;;8.93;4.75;;;;;;;-0.24;100.00;97411.91;1750038;82;20965;-71
2022/01/30 08:45:14;;;;;;;9.80;4.60;;;;;;;-0.21;100.00;97408.59;1750105;82;21804;-68
2022/01/30 08:47:43;;;;;;;6.55;4.03;;;;;;;-0.17;100.00;97397.39;1750140;82;21383;-70
2022/01/30 08:50:14;;;;;;;8.45;4.92;;;;;;;-0.13;100.00;97403.02;1750021;82;21438;-70
2022/01/30 08:52:45;;;;;;;10.20;4.50;;;;;;;-0.06;100.00;97399.90;1750635;82;20913;-69
2022/01/30 08:55:12;;;;;;;8.50;3.83;;;;;;;0.03;100.00;97384.56;1750087;82;21068;-70
2022/01/30 08:57:38;;;;;;;7.67;4.70;;;;;;;0.15;100.00;97388.66;1749915;82;21550;-70
2022/01/30 09:00:08;;;;;;;9.73;5.00;;;;;;;0.22;100.00;97383.06;1750010;82;20980;-69
2022/01/30 09:02:37;;;;;;;8.33;3.95;;;;;;;0.28;100.00;97380.24;1750211;82;20993;-70
2022/01/30 09:05:10;;;;;;;7.87;4.20;;;;;;;0.35;100.00;97373.86;1750010;82;20933;-70
2022/01/30 09:07:38;;;;;;;9.43;4.75;;;;;;;0.43;100.00;97379.91;1749907;82;20993;-69
2022/01/30 09:10:08;;;;;;;7.85;3.70;;;;;;;0.50;100.00;97383.55;1725794;81;21778;-70
2022/01/30 09:12:35;;;;;;;5.72;3.75;;;;;;;0.61;100.00;97369.23;1757553;81;20920;-69
2022/01/30 09:15:08;;;;;;;8.83;4.33;;;;;;;0.73;100.00;97365.39;1757787;81;21505;-71
2022/01/30 09:17:39;;;;;;;11.65;5.45;;;;;;;0.84;100.00;97365.16;1757970;81;21036;-70
2022/01/30 09:20:07;;;;;;;9.65;4.62;;;;;;;0.93;100.00;97361.96;1757781;81;20964;-70
2022/01/30 09:22:35;;;;;;;14.20;6.95;;;;;;;1.02;100.00;97366.64;1757639;81;21107;-71
2022/01/30 09:25:05;;;;;;;9.20;5.17;;;;;;;1.08;100.00;97358.61;1757704;81;20933;-70
2022/01/30 09:27:38;;;;;;;9.93;5.45;;;;;;;1.14;100.00;97356.03;1757710;81;21112;-69
2022/01/30 09:30:10;;;;;;;9.15;5.20;;;;;;;1.26;100.00;97358.72;1757709;81;20988;-71
2022/01/30 09:32:38;;;;;;;6.12;3.55;;;;;;;1.41;100.00;97358.32;1757952;81;21422;-70
2022/01/30 09:35:09;;;;;;;10.03;4.28;;;;;;;1.60;100.00;97355.92;1758130;81;21579;-70
2022/01/30 09:37:38;;;;;;;9.05;5.00;;;;;;;1.75;100.00;97351.98;1757740;81;20834;-70
2022/01/30 09:40:13;;;;;;;12.47;5.08;;;;;;;1.85;100.00;97350.88;1758031;81;21008;-69
2022/01/30 09:42:46;;;;;;;10.08;4.80;;;;;;;1.92;100.00;97355.30;1757767;81;20940;-70
2022/01/30 09:45:11;;;;;;;11.25;5.30;;;;;;;1.99;100.00;97349.41;1756637;81;21382;-70
2022/01/30 09:47:39;;;;;;;11.68;5.30;;;;;;;2.05;100.00;97343.25;1757681;81;21880;-70
2022/01/30 09:50:09;;;;;;;9.93;4.97;;;;;;;2.12;100.00;97349.02;1757917;81;20897;-69
2022/01/30 09:52:42;;;;;;;9.70;4.80;;;;;;;2.21;100.00;97354.48;1730782;81;20921;-71
2022/01/30 09:55:12;;;;;;;9.05;4.45;;;;;;;2.30;100.00;97355.85;1757852;81;21405;-70
2022/01/30 09:57:39;;;;;;;20.55;6.80;;;;;;;2.36;100.00;97339.63;1757782;81;21549;-70
2022/01/30 10:00:12;;;;;;;10.00;4.60;;;;;;;2.41;100.00;97344.09;1758266;81;21520;-70
2022/01/30 10:02:43;;;;;;;11.57;4.95;;;;;;;2.43;100.00;97345.39;1758057;81;21229;-71
2022/01/30 10:05:14;;;;;;;10.23;4.35;;;;;;;2.45;100.00;97351.05;1758131;81;21413;-71
2022/01/30 10:07:56;;;;;;;8.18;4.03;;;;;;;2.43;100.00;97350.02;1757701;81;20849;-72
2022/01/30 10:10:28;;;;;;;12.05;4.65;;;;;;;2.41;100.00;97346.27;1747588;81;20895;-70
2022/01/30 10:13:14;;;;;;;8.80;4.17;;;;;;;2.36;100.00;97349.69;1732762;82;20894;-70
2022/01/30 10:15:55;;;;;;;6.95;3.20;;;;;;;2.29;100.00;97352.88;1735992;82;21565;-71
2022/01/30 10:18:37;;;;;;;6.83;3.27;;;;;;;2.25;100.00;97342.41;1736019;82;20993;-70
2022/01/30 10:21:06;;;;;;;5.22;2.80;;;;;;;2.23;100.00;97339.21;1735293;82;20997;-69
2022/01/30 10:23:36;;;;;;;6.10;3.05;;;;;;;2.23;100.00;97350.08;1715207;82;21041;-70
2022/01/30 10:26:08;;;;;;;8.35;3.95;;;;;;;2.24;100.00;97347.59;1736167;82;21111;-71
2022/01/30 10:28:33;;;;;;;5.37;3.22;;;;;;;2.22;100.00;97341.12;1735842;81;20937;-69
2022/01/30 10:31:05;;;;;;;7.55;3.40;;;;;;;2.22;100.00;97332.19;1735884;82;21037;-68
2022/01/30 10:33:45;;;;;;;10.05;3.37;;;;;;;2.23;100.00;97329.70;1735895;82;21007;-71
2022/01/30 10:36:29;;;;;;;9.30;4.10;;;;;;;2.23;100.00;97326.43;1736012;82;21016;-70
2022/01/30 10:39:16;;;;;;;9.03;3.40;;;;;;;2.27;100.00;97326.02;1736484;82;21783;-71
2022/01/30 10:41:45;;;;;;;10.45;3.65;;;;;;;2.30;100.00;97319.16;1735719;82;20949;-71
2022/01/30 10:44:10;;;;;;;13.38;4.05;;;;;;;2.33;100.00;97320.42;1736188;82;20874;-71
2022/01/30 10:46:43;;;;;;;8.73;3.17;;;;;;;2.36;100.00;97314.34;1736045;82;20854;-71
2022/01/30 10:49:20;;;;;;;8.55;3.65;;;;;;;2.38;100.00;97314.84;1736224;82;20878;-71
2022/01/30 10:51:58;;;;;;;7.75;3.42;;;;;;;2.41;100.00;97317.72;1736112;82;21049;-71
2022/01/30 10:54:29;;;;;;;13.08;4.28;;;;;;;2.46;100.00;97318.11;1736189;82;21494;-71
2022/01/30 10:57:10;;;;;;;7.08;3.58;;;;;;;2.51;100.00;97315.23;1715782;82;20957;-72
2022/01/30 10:59:43;;;;;;;10.82;3.20;;;;;;;2.55;100.00;97307.23;1735857;82;20965;-69
2022/01/30 11:02:15;;;;;;;8.15;3.30;;;;;;;2.61;100.00;97304.58;1714952;82;20929;-71
2022/01/30 11:04:44;;;;;;;9.38;3.12;;;;;;;2.68;98.70;97303.55;1735529;82;39260;-71
2022/01/30 11:07:11;;;;;;;11.55;3.52;;;;;;;2.78;98.06;97301.63;1735871;82;20910;-72
2022/01/30 11:09:45;;;;;;;10.43;3.75;;;;;;;2.87;97.25;97294.78;1735911;81;21537;-72
2022/01/30 11:12:15;;;;;;;18.82;6.85;;;;;;;3.03;97.05;97303.25;1749790;81;21350;-71
2022/01/30 11:17:19;;;;;;;11.78;4.90;;;;;;;3.44;95.26;97295.59;1749970;82;21787;-72
2022/01/30 11:19:56;;;;;;;9.35;4.03;;;;;;;3.56;93.91;97295.44;1750132;82;20949;-71
2022/01/30 11:22:28;;;;;;;11.40;3.65;;;;;;;3.57;92.34;97292.39;1750001;81;21057;-72
2022/01/30 11:25:07;;;;;;;8.25;4.25;;;;;;;3.57;91.54;97290.22;1750404;82;21044;-70
2022/01/30 11:27:34;;;;;;;15.55;5.65;;;;;;;3.59;91.31;97286.61;1749897;82;20917;-71
2022/01/30 11:30:01;;;;;;;12.33;5.65;;;;;;;3.68;90.18;97285.21;1750271;82;21450;-71
2022/01/30 11:32:30;;;;;;;16.60;5.53;;;;;;;3.74;89.32;97289.33;1749776;82;20942;-71
2022/01/30 11:35:00;;;;;;;13.55;4.10;;;;;;;3.74;88.67;97292.86;1750226;82;20917;-70
2022/01/30 11:37:28;;;;;;;7.90;2.80;;;;;;;3.69;88.00;97284.07;1739616;82;21407;-71
2022/01/30 11:39:57;;;;;;;18.37;5.78;;;;;;;3.62;87.49;97281.86;1749568;82;20861;-70
2022/01/30 11:42:44;;;;;;;12.47;4.17;;;;;;;3.54;86.44;97278.07;1749923;82;21135;-72
2022/01/30 11:45:32;;;;;;;11.88;4.60;;;;;;;3.48;86.31;97273.95;1749972;82;20914;-72
2022/01/30 11:48:10;;;;;;;13.35;4.55;;;;;;;3.40;85.87;97276.38;1750021;82;20893;-71
2022/01/30 11:50:38;;;;;;;10.98;3.92;;;;;;;3.33;85.82;97272.55;1750245;82;20881;-72
2022/01/30 11:53:07;;;;;;;16.07;4.37;;;;;;;3.31;86.15;97267.43;1750274;82;20945;-72
2022/01/30 11:55:54;;;;;;;8.35;3.35;;;;;;;3.34;86.07;97268.16;1749784;81;21157;-71
2022/01/30 11:58:42;;;;;;;11.68;4.50;;;;;;;3.39;85.54;97261.17;1750010;82;21446;-71
2022/01/30 12:01:36;;;;;;;6.62;3.50;;;;;;;3.52;85.32;97255.81;1749026;82;21430;-69
2022/01/30 12:04:11;;;;;;;10.45;4.12;;;;;;;3.74;84.47;97260.73;1750281;82;20973;-72
2022/01/30 12:06:44;;;;;;;8.65;3.25;;;;;;;3.88;83.89;97261.30;1749992;82;21048;-72
2022/01/30 12:09:27;;;;;;;14.63;4.58;;;;;;;3.95;83.09;97258.05;1750225;81;21102;-72
2022/01/30 12:11:57;;;;;;;13.05;4.20;;;;;;;3.98;82.61;97266.11;1738672;81;21008;-72
2022/01/30 12:14:30;;;;;;;11.10;3.65;;;;;;;4.03;82.54;97262.41;1736087;82;21017;-72
2022/01/30 12:17:04;;;;;;;8.40;4.03;;;;;;;4.08;81.80;97264.36;1736239;82;20982;-73
2022/01/30 12:19:37;;;;;;;11.28;3.67;;;;;;;4.07;81.52;97254.59;1735876;81;21412;-72
2022/01/30 12:22:28;;;;;;;11.38;3.62;;;;;;;4.05;81.20;97266.94;1730038;82;21136;-72
2022/01/30 12:25:21;;;;;;;10.80;3.65;;;;;;;3.98;81.12;97271.55;1736046;81;20962;-72
2022/01/30 12:27:49;;;;;;;10.05;3.85;;;;;;;3.86;81.14;97269.00;1715191;82;20949;-70
2022/01/30 12:30:39;;;;;;;9.68;3.80;;;;;;;3.81;81.34;97270.55;1706963;82;21446;-72
2022/01/30 12:33:33;;;;;;;16.82;4.08;;;;;;;3.84;81.53;97275.33;1690259;82;21074;-71
2022/01/30 12:36:04;;;;;;;8.78;3.35;;;;;;;3.91;81.38;97279.48;1706801;83;21120;-72
2022/01/30 12:38:34;;;;;;;7.53;3.60;;;;;;;4.04;81.89;97268.89;1706550;84;20950;-72
2022/01/30 12:41:18;;;;;;;9.85;3.30;;;;;;;4.22;81.44;97266.83;1706967;84;21037;-71
2022/01/30 12:43:45;;;;;;;8.03;3.25;;;;;;;4.32;80.74;97270.27;1705934;84;21070;-72